createdAt,value
2023-05-05T00:00:14.678Z,53.8392
2023-05-05T00:01:15.491Z,53.9207
2023-05-05T00:02:15.875Z,53.9060
2023-05-05T00:03:17.739Z,53.9215
2023-05-05T00:04:22.483Z,53.9480
2023-05-05T00:05:24.980Z,53.9861
2023-05-05T00:06:25.517Z,53.9888
2023-05-05T00:07:27.448Z,53.9805
2023-05-05T00:08:29.352Z,53.9795
2023-05-05T00:09:30.363Z,53.9892
2023-05-05T00:10:32.255Z,54.2042
2023-05-05T00:11:34.424Z,54.3974
2023-05-05T00:12:35.502Z,54.4281
2023-05-05T00:13:36.265Z,54.4128
2023-05-05T00:14:37.172Z,54.4179
2023-05-05T00:15:38.746Z,54.4999
2023-05-05T00:16:39.243Z,54.6230
2023-05-05T00:17:40.766Z,54.7443
2023-05-05T00:18:41.986Z,54.8509
2023-05-05T00:19:43.451Z,54.9252
2023-05-05T00:20:44.544Z,54.9732
2023-05-05T00:21:46.328Z,55.0063
2023-05-05T00:22:48.255Z,55.0353
2023-05-05T00:23:51.579Z,55.1124
2023-05-05T00:24:53.664Z,55.1893
2023-05-05T00:25:55.368Z,55.2436
2023-05-05T00:26:57.407Z,55.2475
2023-05-05T00:27:57.483Z,55.2128
2023-05-05T00:28:59.433Z,55.1683
2023-05-05T00:30:32.665Z,55.0047
2023-05-05T00:31:34.034Z,55.1014
2023-05-05T00:32:37.742Z,55.1513
2023-05-05T00:33:40.119Z,55.2581
2023-05-05T00:34:42.763Z,55.4219
2023-05-05T00:35:42.996Z,55.5345
2023-05-05T00:36:43.274Z,55.6820
2023-05-05T00:38:12.497Z,55.8264
2023-05-05T00:39:14.178Z,56.0578
2023-05-05T00:40:16.615Z,56.2126
2023-05-05T00:41:19.935Z,56.3305
2023-05-05T00:42:22.370Z,56.4197
2023-05-05T00:43:23.583Z,56.5221
2023-05-05T00:44:26.355Z,56.6218
2023-05-05T00:45:29.473Z,56.6649
2023-05-05T00:46:30.708Z,56.6703
2023-05-05T00:47:33.107Z,56.6919
2023-05-05T00:48:33.198Z,56.7304
2023-05-05T00:49:35.443Z,56.8158
2023-05-05T00:50:42.045Z,57.0746
2023-05-05T00:52:08.716Z,57.1951
2023-05-05T00:53:10.974Z,57.3577
2023-05-05T00:54:12.310Z,57.3903
2023-05-05T00:55:13.588Z,57.4563
2023-05-05T00:56:17.350Z,57.5687
2023-05-05T00:57:19.393Z,57.6727
2023-05-05T00:58:19.453Z,57.7256
2023-05-05T00:59:20.268Z,57.7359
2023-05-05T01:00:21.944Z,57.7223
2023-05-05T01:01:24.651Z,57.7036
2023-05-05T01:02:28.001Z,57.6522
2023-05-05T01:03:28.755Z,57.5868
2023-05-05T01:04:30.089Z,57.5894
2023-05-05T01:05:30.926Z,57.7165
2023-05-05T01:06:34.543Z,57.9065
2023-05-05T01:07:34.890Z,58.1305
2023-05-05T01:08:35.039Z,58.3877
2023-05-05T01:09:38.147Z,58.6321
2023-05-05T01:10:42.212Z,58.9338
2023-05-05T01:11:43.168Z,59.2516
2023-05-05T01:13:11.143Z,59.2807
2023-05-05T01:14:12.955Z,59.5308
2023-05-05T01:15:15.632Z,59.7147
2023-05-05T01:16:18.112Z,59.8159
2023-05-05T01:17:18.522Z,59.9545
2023-05-05T01:18:20.757Z,60.0929
2023-05-05T01:19:25.623Z,60.2294
2023-05-05T01:20:26.397Z,60.2441
2023-05-05T01:21:56.491Z,60.0743
2023-05-05T01:23:00.234Z,60.1138
2023-05-05T01:24:00.367Z,60.0497
2023-05-05T01:25:06.568Z,60.0196
2023-05-05T01:26:34.074Z,59.9113
2023-05-05T01:27:34.865Z,60.0173
2023-05-05T01:29:03.446Z,59.8547
2023-05-05T01:30:04.112Z,59.9541
2023-05-05T01:31:36.359Z,59.7897
2023-05-05T01:32:39.685Z,59.8596
2023-05-05T01:33:40.570Z,59.8457
2023-05-05T01:34:44.403Z,59.8656
2023-05-05T01:35:45.418Z,59.9879
2023-05-05T01:36:47.985Z,60.2308
2023-05-05T01:37:49.420Z,60.4919
2023-05-05T01:38:51.324Z,60.7285
2023-05-05T01:39:51.483Z,60.9575
2023-05-05T01:40:54.155Z,61.1742
2023-05-05T01:41:56.983Z,61.3557
2023-05-05T01:43:02.595Z,61.5600
2023-05-05T01:44:02.643Z,61.6955
2023-05-05T01:45:07.910Z,61.8112
2023-05-05T01:46:10.028Z,61.9451
2023-05-05T01:47:11.455Z,62.1072
2023-05-05T01:48:15.264Z,62.2237
2023-05-05T01:49:18.956Z,62.3089
2023-05-05T01:50:20.679Z,62.3529
2023-05-05T01:51:22.327Z,62.3788
2023-05-05T01:52:25.608Z,62.3770
2023-05-05T01:53:27.620Z,62.3815
2023-05-05T01:54:27.552Z,62.3789
2023-05-05T01:55:32.077Z,62.3840
2023-05-05T01:56:35.757Z,62.4033
2023-05-05T01:57:37.865Z,62.4269
2023-05-05T01:58:41.171Z,62.3917
2023-05-05T01:59:43.315Z,62.3252
2023-05-05T02:00:43.462Z,62.2961
2023-05-05T02:02:47.074Z,62.0773
2023-05-05T02:03:49.055Z,62.1755
2023-05-05T02:04:49.165Z,62.1101
2023-05-05T02:05:49.549Z,62.0396
2023-05-05T02:06:53.282Z,61.9698
2023-05-05T02:07:55.527Z,61.9080
2023-05-05T02:08:57.776Z,61.8504
2023-05-05T02:10:01.537Z,61.8480
2023-05-05T02:11:04.083Z,61.8612
2023-05-05T02:12:32.065Z,61.6854
2023-05-05T02:14:04.586Z,61.6450
2023-05-05T02:15:09.588Z,61.7490
2023-05-05T02:16:12.965Z,61.7427
2023-05-05T02:18:42.461Z,61.5583
2023-05-05T02:19:46.302Z,61.7391
2023-05-05T02:20:48.573Z,61.8419
2023-05-05T02:21:49.223Z,61.9000
2023-05-05T02:22:49.663Z,61.9705
2023-05-05T02:23:52.802Z,61.9895
2023-05-05T02:24:55.034Z,61.9370
2023-05-05T02:26:25.029Z,61.7050
2023-05-05T02:27:29.549Z,61.8165
2023-05-05T02:28:33.254Z,61.8573
2023-05-05T02:29:37.895Z,61.8762
2023-05-05T02:30:43.458Z,61.8760
2023-05-05T02:31:43.683Z,61.8685
2023-05-05T02:32:44.567Z,61.8548
2023-05-05T02:33:48.234Z,61.8344
2023-05-05T02:34:51.342Z,61.8135
2023-05-05T02:36:50.613Z,61.5068
2023-05-05T02:37:51.016Z,61.5882
2023-05-05T02:38:52.916Z,61.5408
2023-05-05T02:39:53.936Z,61.4875
2023-05-05T02:40:54.867Z,61.4417
2023-05-05T02:46:02.058Z,60.9655
2023-05-05T02:49:06.756Z,60.9293
2023-05-05T02:50:08.566Z,61.0897
2023-05-05T02:51:12.904Z,61.1595
2023-05-05T02:52:15.277Z,61.1938
2023-05-05T03:02:07.785Z,61.3986
2023-05-05T03:03:08.889Z,61.6950
2023-05-05T03:04:13.011Z,61.9384
2023-05-05T03:05:16.714Z,62.1959
2023-05-05T03:06:20.266Z,62.4462
2023-05-05T03:07:22.619Z,62.6303
2023-05-05T03:08:24.480Z,62.7511
2023-05-05T03:09:25.530Z,62.8403
2023-05-05T03:10:28.386Z,62.9373
2023-05-05T03:11:29.235Z,63.0965
2023-05-05T03:12:30.339Z,63.1647
2023-05-05T03:13:34.710Z,63.2114
2023-05-05T03:14:37.128Z,63.2030
2023-05-05T03:15:38.874Z,63.2574
2023-05-05T03:16:40.006Z,63.3625
2023-05-05T03:17:42.154Z,63.5467
2023-05-05T03:18:47.136Z,63.7419
2023-05-05T03:19:50.435Z,63.8613
2023-05-05T03:20:54.680Z,63.9953
2023-05-05T03:21:56.882Z,64.1090
2023-05-05T03:23:02.668Z,64.1517
2023-05-05T03:24:31.082Z,63.9410
2023-05-05T03:25:32.343Z,63.9765
2023-05-05T03:26:36.038Z,63.9196
2023-05-05T03:27:36.417Z,63.8433
2023-05-05T03:30:41.160Z,63.3834
2023-05-05T03:31:44.547Z,63.5134
2023-05-05T03:32:46.808Z,63.5446
2023-05-05T03:33:47.507Z,63.5864
2023-05-05T03:46:46.671Z,62.6787
2023-05-05T03:47:47.355Z,62.8796
2023-05-05T03:52:51.919Z,62.5185
2023-05-05T03:53:52.531Z,62.6784
2023-05-05T03:55:19.478Z,62.5342
2023-05-05T03:56:22.063Z,62.6301
2023-05-05T03:57:26.280Z,62.6150
2023-05-05T03:58:31.923Z,62.5960
2023-05-05T03:59:32.378Z,62.5317
2023-05-05T04:30:21.609Z,61.6009
2023-05-05T04:31:26.619Z,61.8023
2023-05-05T04:40:49.442Z,61.9493
2023-05-05T04:41:57.088Z,62.1542
2023-05-05T04:43:00.515Z,62.2049
2023-05-05T04:44:11.359Z,62.2265
2023-05-05T04:52:47.827Z,61.7365
2023-05-05T04:53:49.691Z,61.9175
2023-05-05T04:54:52.635Z,61.9586
2023-05-05T04:55:56.772Z,61.9687
2023-05-05T05:01:58.255Z,61.6251
2023-05-05T05:03:00.106Z,61.8251
2023-05-05T05:08:26.469Z,62.1539
2023-05-05T05:13:29.089Z,62.0211
2023-05-05T05:14:32.892Z,62.1771
2023-05-05T05:15:36.648Z,62.1993
2023-05-05T05:16:38.199Z,62.2093
2023-05-05T05:17:40.378Z,62.2220
2023-05-05T05:18:40.687Z,62.2420
2023-05-05T05:19:40.856Z,62.2766
2023-05-05T05:43:12.515Z,62.8970
2023-05-05T05:44:14.743Z,63.1171
2023-05-05T05:45:17.119Z,63.2357
2023-05-05T05:46:17.497Z,63.3601
2023-05-05T05:59:18.911Z,63.5902
2023-05-05T06:00:19.585Z,63.8293
2023-05-05T06:01:20.829Z,63.9419
2023-05-05T06:02:25.867Z,64.0215
2023-05-05T06:03:29.459Z,64.1138
2023-05-05T06:08:41.185Z,64.1515
2023-05-05T06:09:43.203Z,64.3874
2023-05-05T06:10:43.675Z,64.4638
2023-05-05T06:11:44.547Z,64.5006
2023-05-05T06:13:14.133Z,64.3665
2023-05-05T06:14:19.554Z,64.4463
2023-05-05T06:15:22.456Z,64.4254
2023-05-05T06:28:17.029Z,0.0000
2023-05-05T06:29:17.630Z,0.0000
2023-05-05T06:30:50.592Z,63.2923
2023-05-05T06:32:24.119Z,63.4950
2023-05-05T06:33:51.925Z,63.5878
2023-05-05T06:34:54.029Z,63.7455
2023-05-05T06:35:56.823Z,63.9185
2023-05-05T06:37:56.113Z,63.7769
2023-05-05T06:45:09.329Z,63.4222
2023-05-05T06:46:37.395Z,63.4398
2023-05-05T06:48:08.062Z,63.3787
2023-05-05T06:49:10.626Z,63.4597
2023-05-05T06:50:38.626Z,63.2562
2023-05-05T06:51:42.163Z,63.3199
2023-05-05T06:53:10.485Z,63.0113
2023-05-05T06:54:43.764Z,62.8239
2023-05-05T06:56:12.162Z,62.6555
2023-05-05T06:57:40.951Z,62.4826
2023-05-05T06:59:09.775Z,62.2845
2023-05-05T07:00:40.691Z,62.0796
2023-05-05T07:02:09.397Z,61.8835
2023-05-05T07:03:40.899Z,61.7141
2023-05-05T07:04:44.186Z,61.7399
2023-05-05T07:06:14.391Z,61.4843
2023-05-05T07:07:43.707Z,61.3129
2023-05-05T07:09:16.936Z,61.1995
2023-05-05T07:10:16.194Z,61.2629
2023-05-05T07:11:49.168Z,61.0944
2023-05-05T07:13:49.577Z,60.8883
2023-05-05T07:15:27.450Z,60.8109
2023-05-05T07:16:50.100Z,60.6658
2023-05-05T07:18:21.387Z,60.4882
2023-05-05T07:19:51.716Z,60.1348
2023-05-05T07:21:20.609Z,59.7052
2023-05-05T07:22:22.208Z,59.7425
2023-05-05T07:23:52.170Z,59.4550
2023-05-05T07:25:20.991Z,59.1974
2023-05-05T07:26:52.377Z,58.9485
2023-05-05T07:28:23.114Z,58.8419
2023-05-05T07:29:53.768Z,58.5410
2023-05-05T07:30:54.699Z,58.5540
2023-05-05T07:32:25.050Z,58.2700
2023-05-05T07:33:56.993Z,58.0118
2023-05-05T07:35:28.670Z,57.7342
2023-05-05T07:36:57.888Z,57.6750
2023-05-05T07:38:27.904Z,57.4081
2023-05-05T07:39:58.330Z,57.2295
2023-05-05T07:41:27.350Z,57.1430
2023-05-05T07:42:58.305Z,57.1331
2023-05-05T07:45:29.334Z,56.9098
2023-05-05T07:47:01.783Z,56.9533
2023-05-05T07:48:32.285Z,56.9285
2023-05-05T07:50:03.439Z,56.8328
2023-05-05T07:51:34.979Z,56.6339
2023-05-05T07:53:13.610Z,56.5159
2023-05-05T07:54:05.902Z,56.6019
2023-05-05T07:55:37.676Z,56.4867
2023-05-05T07:57:07.778Z,56.4685
2023-05-05T07:58:38.936Z,56.4544
2023-05-05T08:00:11.124Z,56.4390
2023-05-05T08:01:42.421Z,56.4226
2023-05-05T08:03:12.877Z,56.2160
2023-05-05T08:04:45.087Z,56.2747
2023-05-05T08:06:15.460Z,56.3020
2023-05-05T08:07:47.331Z,56.2889
2023-05-05T08:09:16.331Z,56.3012
2023-05-05T08:10:47.712Z,56.2972
2023-05-05T08:12:16.546Z,56.2043
2023-05-05T08:13:46.209Z,56.1559
2023-05-05T08:15:17.490Z,56.1657
2023-05-05T08:16:49.284Z,56.0636
2023-05-05T08:18:19.998Z,55.9186
2023-05-05T08:19:48.948Z,55.9118
2023-05-05T08:21:51.800Z,55.7768
2023-05-05T08:24:56.024Z,55.8165
2023-05-05T08:26:57.656Z,55.8295
2023-05-05T08:28:29.185Z,55.9216
2023-05-05T08:30:01.280Z,55.8936
2023-05-05T08:31:31.043Z,55.7614
2023-05-05T08:33:03.589Z,55.6563
2023-05-05T08:34:33.428Z,55.6216
2023-05-05T08:35:35.175Z,55.6997
2023-05-05T08:37:05.644Z,55.5187
2023-05-05T08:38:36.044Z,55.3522
2023-05-05T08:40:08.924Z,55.1235
2023-05-05T08:41:39.195Z,55.1671
2023-05-05T08:42:39.831Z,55.2293
2023-05-05T08:43:42.950Z,55.1499
2023-05-05T08:45:14.354Z,55.0154
2023-05-05T08:46:44.922Z,54.9495
2023-05-05T08:48:13.834Z,54.6329
2023-05-05T08:49:43.608Z,54.2799
2023-05-05T08:51:16.097Z,54.2098
2023-05-05T08:52:48.087Z,53.8797
2023-05-05T08:54:17.779Z,53.8485
2023-05-05T08:55:48.403Z,53.4768
2023-05-05T08:57:19.403Z,53.3997
2023-05-05T08:58:50.687Z,53.2015
2023-05-05T09:00:19.953Z,53.1849
2023-05-05T09:01:50.721Z,53.1186
2023-05-05T09:03:22.084Z,53.0371
2023-05-05T09:04:51.920Z,53.0502
2023-05-05T09:06:21.676Z,53.0398
2023-05-05T09:07:52.273Z,53.0412
2023-05-05T09:09:22.030Z,53.0286
2023-05-05T09:10:51.812Z,52.9157
2023-05-05T09:12:22.142Z,52.8370
2023-05-05T09:13:53.407Z,52.7947
2023-05-05T09:15:24.785Z,51.1766
2023-05-05T09:16:56.072Z,50.8903
2023-05-05T09:18:26.262Z,51.1912
2023-05-05T09:19:56.070Z,51.3000
2023-05-05T09:21:26.799Z,51.2268
2023-05-05T09:22:58.260Z,51.2572
2023-05-05T09:24:30.257Z,51.3517
2023-05-05T09:26:00.717Z,51.0554
2023-05-05T09:27:30.723Z,50.6768
2023-05-05T09:29:00.974Z,50.7186
2023-05-05T09:30:32.265Z,50.8999
2023-05-05T09:32:03.088Z,50.7127
2023-05-05T09:33:34.693Z,50.5917
2023-05-05T09:35:05.033Z,50.5781
2023-05-05T09:36:34.348Z,50.5859
2023-05-05T09:38:05.907Z,50.6529
2023-05-05T09:39:36.726Z,50.7040
2023-05-05T09:41:08.268Z,50.5666
2023-05-05T09:42:38.889Z,50.6386
2023-05-05T09:44:09.669Z,50.6260
2023-05-05T09:45:41.366Z,50.6275
2023-05-05T09:47:25.981Z,50.5588
2023-05-05T09:48:43.423Z,50.4271
2023-05-05T09:50:13.764Z,50.3828
2023-05-05T09:51:43.831Z,50.4042
2023-05-05T09:53:13.168Z,50.3684
2023-05-05T09:54:43.516Z,50.4070
2023-05-05T09:56:12.844Z,50.4276
2023-05-05T09:57:43.147Z,50.3867
2023-05-05T09:59:12.901Z,50.1137
2023-05-05T10:00:43.253Z,49.8875
2023-05-05T10:02:13.606Z,49.9591
2023-05-05T10:03:43.985Z,49.8588
2023-05-05T10:05:14.364Z,49.5995
2023-05-05T10:06:43.515Z,49.1794
2023-05-05T10:08:13.875Z,49.2375
2023-05-05T10:09:44.171Z,49.2092
2023-05-05T10:11:13.474Z,49.1546
2023-05-05T10:12:43.782Z,49.1215
2023-05-05T10:14:14.535Z,49.0815
2023-05-05T10:15:45.852Z,49.0104
2023-05-05T10:17:16.265Z,48.4605
2023-05-05T10:18:45.535Z,48.0331
2023-05-05T10:20:14.799Z,48.1080
2023-05-05T10:21:44.065Z,48.1624
2023-05-05T10:23:13.894Z,48.1283
2023-05-05T10:24:45.407Z,47.9254
2023-05-05T10:26:15.219Z,47.7496
2023-05-05T10:27:44.875Z,47.6971
2023-05-05T10:29:15.626Z,47.4727
2023-05-05T10:30:45.004Z,47.4801
2023-05-05T10:32:40.798Z,47.3977
2023-05-05T10:33:45.074Z,47.0091
2023-05-05T10:35:14.710Z,46.6978
2023-05-05T10:36:44.993Z,46.1331
2023-05-05T10:38:15.724Z,45.5795
2023-05-05T10:39:45.027Z,45.2924
2023-05-05T10:41:14.360Z,45.4697
2023-05-05T10:42:43.745Z,44.9731
2023-05-05T10:44:12.945Z,44.9686
2023-05-05T10:45:43.588Z,44.6310
2023-05-05T10:47:14.247Z,44.2500
2023-05-05T10:48:45.739Z,44.3634
2023-05-05T10:50:14.561Z,44.6529
2023-05-05T10:51:43.886Z,44.8190
2023-05-05T10:53:15.198Z,45.0252
2023-05-05T10:54:45.885Z,43.9581
2023-05-05T10:56:16.724Z,43.8331
2023-05-05T10:57:47.904Z,44.0234
2023-05-05T10:59:18.184Z,43.7964
2023-05-05T11:00:47.539Z,43.3702
2023-05-05T11:02:16.865Z,43.7210
2023-05-05T11:03:47.396Z,43.8356
2023-05-05T11:05:18.804Z,43.9492
2023-05-05T11:06:49.156Z,43.2985
2023-05-05T11:08:18.521Z,42.7154
2023-05-05T11:09:48.311Z,42.7727
2023-05-05T11:11:18.559Z,43.0720
2023-05-05T11:12:48.352Z,42.9135
2023-05-05T11:14:17.667Z,42.2766
2023-05-05T11:15:48.817Z,42.5341
2023-05-05T11:17:18.175Z,42.9277
2023-05-05T11:18:47.595Z,43.2737
2023-05-05T11:20:17.020Z,43.4200
2023-05-05T11:21:46.716Z,43.5859
2023-05-05T11:23:16.772Z,43.3680
2023-05-05T11:24:45.241Z,43.0311
2023-05-05T11:26:14.456Z,43.0475
2023-05-05T11:27:43.644Z,42.7276
2023-05-05T11:29:13.884Z,42.0840
2023-05-05T11:30:44.140Z,41.5087
2023-05-05T11:32:13.647Z,41.0524
2023-05-05T11:33:15.605Z,40.8118
2023-05-05T11:34:45.703Z,40.2902
2023-05-05T11:36:15.794Z,39.6333
2023-05-05T11:37:44.900Z,38.9140
2023-05-05T11:39:13.998Z,38.6195
2023-05-05T11:40:43.019Z,38.2546
2023-05-05T11:42:13.071Z,36.6672
2023-05-05T11:43:43.212Z,32.9442
2023-05-05T11:44:44.605Z,31.4600
2023-05-05T11:46:16.236Z,31.4180
2023-05-05T11:47:44.832Z,31.9044
2023-05-05T11:49:13.812Z,32.2998
2023-05-05T11:50:43.349Z,32.4632
2023-05-05T11:52:12.432Z,32.1709
2023-05-05T11:53:41.437Z,31.5767
2023-05-05T11:55:10.496Z,31.8778
2023-05-05T11:56:41.544Z,32.0610
2023-05-05T11:58:10.586Z,32.0053
2023-05-05T11:59:40.626Z,31.6157
2023-05-05T12:01:10.724Z,31.6763
2023-05-05T12:02:40.065Z,31.9922
2023-05-05T12:04:10.104Z,32.3826
2023-05-05T12:05:38.961Z,32.7465
2023-05-05T12:07:09.101Z,33.1100
2023-05-05T12:08:39.224Z,33.5056
2023-05-05T12:10:08.631Z,33.7669
2023-05-05T12:11:37.407Z,33.9614
2023-05-05T12:13:06.563Z,33.9938
2023-05-05T12:14:36.599Z,33.8693
2023-05-05T12:16:06.754Z,31.8498
2023-05-05T12:17:36.713Z,31.7211
2023-05-05T12:19:05.741Z,31.4760
2023-05-05T12:20:35.642Z,30.0876
2023-05-05T12:22:04.683Z,30.2422
2023-05-05T12:23:33.626Z,30.5911
2023-05-05T12:25:03.604Z,30.8526
2023-05-05T12:26:32.588Z,31.1266
2023-05-05T12:28:01.494Z,30.8678
2023-05-05T12:29:31.488Z,30.9339
2023-05-05T12:31:01.629Z,31.0401
2023-05-05T12:32:31.569Z,31.2152
2023-05-05T12:34:01.624Z,31.1246
2023-05-05T12:35:31.795Z,31.0091
2023-05-05T12:37:01.611Z,30.6491
2023-05-05T12:38:31.607Z,29.6044
2023-05-05T12:40:00.496Z,27.7607
2023-05-05T12:41:29.434Z,27.7558
2023-05-05T12:42:59.364Z,28.0930
2023-05-05T12:44:28.821Z,28.3038
2023-05-05T12:45:58.885Z,28.4964
2023-05-05T12:47:29.314Z,28.6770
2023-05-05T12:48:59.754Z,28.7257
2023-05-05T12:50:28.654Z,28.7848
2023-05-05T12:51:57.639Z,28.6137
2023-05-05T12:53:27.485Z,28.2665
2023-05-05T12:54:57.376Z,27.8964
2023-05-05T12:56:26.272Z,27.6637
2023-05-05T12:57:56.184Z,27.4301
2023-05-05T12:59:26.083Z,27.6705
2023-05-05T13:00:56.459Z,27.8826
2023-05-05T13:02:25.262Z,27.7206
2023-05-05T13:03:54.126Z,27.5608
2023-05-05T13:05:23.028Z,27.7818
2023-05-05T13:06:53.512Z,27.8558
2023-05-05T13:08:20.736Z,27.8003
2023-05-05T13:09:50.565Z,27.6361
2023-05-05T13:11:19.376Z,27.2964
2023-05-05T13:12:48.186Z,27.2815
2023-05-05T13:14:17.010Z,27.0942
2023-05-05T13:15:46.846Z,27.1328
2023-05-05T13:17:15.634Z,25.9536
2023-05-05T13:18:45.487Z,25.7138
2023-05-05T13:20:15.373Z,24.9754
2023-05-05T13:21:44.252Z,24.6171
2023-05-05T13:23:13.148Z,25.1397
2023-05-05T13:24:50.605Z,25.3555
2023-05-05T13:26:11.963Z,25.4112
2023-05-05T13:27:40.921Z,24.3507
2023-05-05T13:29:09.860Z,24.8546
2023-05-05T13:30:38.746Z,25.2653
2023-05-05T13:32:07.623Z,25.3500
2023-05-05T13:33:36.480Z,25.5324
2023-05-05T13:35:05.418Z,25.5115
2023-05-05T13:36:35.275Z,25.3135
2023-05-05T13:38:05.219Z,25.1699
2023-05-05T13:39:35.086Z,25.1619
2023-05-05T13:41:05.155Z,25.3147
2023-05-05T13:42:33.978Z,25.2010
2023-05-05T13:44:03.916Z,25.3617
2023-05-05T13:45:33.895Z,25.3923
2023-05-05T13:47:03.915Z,25.4417
2023-05-05T13:48:32.864Z,24.9286
2023-05-05T13:50:01.907Z,25.0944
2023-05-05T13:51:31.852Z,25.5530
2023-05-05T13:53:00.894Z,25.7910
2023-05-05T13:54:29.859Z,25.5942
2023-05-05T13:55:58.967Z,25.8516
2023-05-05T13:57:30.145Z,26.1836
2023-05-05T13:59:00.104Z,26.1749
2023-05-05T14:00:29.197Z,26.1147
2023-05-05T14:01:58.146Z,26.0655
2023-05-05T14:03:27.162Z,26.0622
2023-05-05T14:04:56.997Z,26.0435
2023-05-05T14:06:26.424Z,26.3150
2023-05-05T14:07:56.430Z,26.6390
2023-05-05T14:09:25.597Z,26.9087
2023-05-05T14:10:55.727Z,27.1263
2023-05-05T14:12:25.827Z,27.3352
2023-05-05T14:13:55.995Z,27.4757
2023-05-05T14:15:25.851Z,27.5537
2023-05-05T14:16:55.784Z,27.6101
2023-05-05T14:18:25.503Z,27.8346
2023-05-05T14:19:56.396Z,28.0893
2023-05-05T14:21:25.799Z,28.2781
2023-05-05T14:22:54.980Z,28.4340
2023-05-05T14:24:25.425Z,28.6225
2023-05-05T14:25:54.569Z,28.7941
2023-05-05T14:27:23.833Z,28.9258
2023-05-05T14:28:53.585Z,29.0773
2023-05-05T14:30:22.935Z,29.2295
2023-05-05T14:31:52.357Z,29.3718
2023-05-05T14:33:21.602Z,29.5585
2023-05-05T14:34:50.856Z,29.7818
2023-05-05T14:36:21.104Z,29.9932
2023-05-05T14:37:50.353Z,30.1891
2023-05-05T14:39:19.504Z,30.3997
2023-05-05T14:40:48.688Z,30.5954
2023-05-05T14:42:17.946Z,30.6875
2023-05-05T14:43:47.138Z,30.7893
2023-05-05T14:45:17.417Z,31.0009
2023-05-05T14:46:48.551Z,31.1831
2023-05-05T14:48:16.918Z,31.3323
2023-05-05T14:49:47.209Z,31.4680
2023-05-05T14:51:16.873Z,31.6505
2023-05-05T14:52:46.133Z,31.8776
2023-05-05T14:54:26.935Z,32.0843
2023-05-05T14:55:47.006Z,32.1065
2023-05-05T14:57:18.079Z,32.0185
2023-05-05T14:58:49.471Z,32.1651
2023-05-05T15:00:18.246Z,32.3830
2023-05-05T15:01:47.649Z,32.5618
2023-05-05T15:03:18.686Z,32.6040
2023-05-05T15:04:50.337Z,32.8284
2023-05-05T15:06:19.743Z,33.1227
2023-05-05T15:07:51.355Z,33.3437
2023-05-05T15:09:21.056Z,33.6323
2023-05-05T15:10:52.158Z,33.8444
2023-05-05T15:12:21.993Z,34.1593
2023-05-05T15:13:53.570Z,34.3413
2023-05-05T15:15:23.117Z,34.6231
2023-05-05T15:16:53.130Z,34.8356
2023-05-05T15:18:21.990Z,34.8859
2023-05-05T15:19:53.308Z,35.1582
2023-05-05T15:21:23.334Z,35.2731
2023-05-05T15:22:54.328Z,35.3797
2023-05-05T15:24:25.133Z,35.5393
2023-05-05T15:25:54.959Z,35.9615
2023-05-05T15:27:25.281Z,36.7404
2023-05-05T15:28:54.649Z,37.6813
2023-05-05T15:30:25.541Z,38.5406
2023-05-05T15:31:56.865Z,39.6825
2023-05-05T15:33:29.053Z,40.2415
2023-05-05T15:35:00.570Z,41.6990
2023-05-05T15:36:29.399Z,42.0582
2023-05-05T15:37:59.406Z,42.5427
2023-05-05T15:39:29.667Z,42.8541
2023-05-05T15:40:31.871Z,43.3768
2023-05-05T15:41:34.535Z,43.9230
2023-05-05T15:42:35.726Z,44.8232
2023-05-05T15:44:07.932Z,45.8867
2023-05-05T15:49:17.992Z,49.1187
2023-05-05T15:50:45.976Z,49.2175
2023-05-05T15:52:14.778Z,50.1719
2023-05-05T16:10:55.818Z,51.1395
2023-05-05T16:11:58.930Z,50.9616
2023-05-05T16:13:29.769Z,50.6936
2023-05-05T16:14:59.909Z,50.8476
2023-05-05T16:16:32.297Z,50.2719
2023-05-05T16:18:01.543Z,49.8885
2023-05-05T16:19:32.546Z,49.4239
2023-05-05T16:21:03.126Z,49.0932
2023-05-05T16:22:05.744Z,49.0904
2023-05-05T16:23:35.737Z,48.9066
2023-05-05T16:25:04.953Z,48.8988
2023-05-05T16:26:08.485Z,49.0445
2023-05-05T16:27:37.111Z,48.8704
2023-05-05T16:28:39.526Z,48.9524
2023-05-05T16:30:09.576Z,48.7143
2023-05-05T16:31:38.191Z,48.6637
2023-05-05T16:33:07.137Z,48.8134
2023-05-05T16:34:39.062Z,48.6901
2023-05-05T16:36:08.215Z,48.6631
2023-05-05T16:37:40.375Z,48.6338
2023-05-05T16:39:11.102Z,48.6771
2023-05-05T16:40:39.836Z,48.6021
2023-05-05T16:41:41.513Z,48.6619
2023-05-05T16:43:14.250Z,48.5072
2023-05-05T16:44:46.707Z,48.5924
2023-05-05T16:46:15.635Z,48.6205
2023-05-05T16:47:46.080Z,48.7659
2023-05-05T16:49:15.885Z,48.8106
2023-05-05T16:50:18.755Z,49.0202
2023-05-05T16:51:48.330Z,49.2842
2023-05-05T16:52:49.342Z,49.3437
2023-05-05T16:53:51.663Z,49.6811
2023-05-05T16:55:23.280Z,49.8993
2023-05-05T16:56:56.989Z,49.7660
2023-05-05T16:58:24.185Z,49.7700
2023-05-05T16:59:54.267Z,49.8703
2023-05-05T17:01:25.731Z,50.0485
2023-05-05T17:02:57.057Z,50.2376
2023-05-05T17:04:27.793Z,50.3110
2023-05-05T17:05:58.566Z,50.3188
2023-05-05T17:07:02.276Z,50.3938
2023-05-05T17:08:33.752Z,50.3598
2023-05-05T17:09:35.679Z,50.6604
2023-05-05T17:11:05.376Z,50.7116
2023-05-05T17:12:08.507Z,50.8522
2023-05-05T17:13:08.828Z,50.8867
2023-05-05T17:14:13.193Z,50.9531
2023-05-05T17:27:38.330Z,51.6815
2023-05-05T17:28:38.287Z,51.9091
2023-05-05T17:31:10.408Z,52.2147
2023-05-05T17:41:30.768Z,52.2638
2023-05-05T17:45:07.540Z,52.9111
2023-05-05T17:52:55.416Z,52.6898
2023-05-05T17:57:32.654Z,52.7779
